createdAt,value
2022-08-07T00:02:53.783Z,8.20
2022-08-07T00:05:23.585Z,8.68
2022-08-07T00:08:00.141Z,8.63
2022-08-07T00:10:31.375Z,8.55
2022-08-07T00:13:09.611Z,9.10
2022-08-07T00:15:46.802Z,8.98
2022-08-07T00:18:24.565Z,8.65
2022-08-07T00:21:01.531Z,8.43
2022-08-07T00:23:30.747Z,8.18
2022-08-07T00:26:02.865Z,8.02
2022-08-07T00:28:45.711Z,8.50
2022-08-07T00:31:16.660Z,8.70
2022-08-07T00:33:47.411Z,8.52
2022-08-07T00:36:14.935Z,8.10
2022-08-07T00:38:43.837Z,8.18
2022-08-07T00:41:14.818Z,7.43
2022-08-07T00:44:01.340Z,8.27
2022-08-07T00:46:32.946Z,8.10
2022-08-07T00:49:03.003Z,8.20
2022-08-07T00:51:58.546Z,7.75
2022-08-07T00:54:19.628Z,7.88
2022-08-07T00:56:49.709Z,8.27
2022-08-07T00:59:35.224Z,6.97
2022-08-07T01:02:03.508Z,7.10
2022-08-07T01:04:35.509Z,7.47
2022-08-07T01:07:09.972Z,7.22
2022-08-07T01:10:06.253Z,7.30
2022-08-07T01:12:30.139Z,7.40
2022-08-07T01:15:01.648Z,7.90
2022-08-07T01:17:32.061Z,7.70
2022-08-07T01:20:10.178Z,7.60
2022-08-07T01:22:53.966Z,8.02
2022-08-07T01:25:54.026Z,7.70
2022-08-07T01:28:15.604Z,8.07
2022-08-07T01:30:43.918Z,8.07
2022-08-07T01:33:12.194Z,7.88
2022-08-07T01:35:53.807Z,7.85
2022-08-07T01:38:24.700Z,8.35
2022-08-07T01:40:58.714Z,8.18
2022-08-07T01:43:34.578Z,8.35
2022-08-07T01:46:05.743Z,7.95
2022-08-07T01:48:35.773Z,8.32
2022-08-07T01:51:24.559Z,8.18
2022-08-07T01:54:12.659Z,8.35
2022-08-07T01:56:55.294Z,8.15
2022-08-07T01:59:31.187Z,8.13
2022-08-07T02:02:10.379Z,8.23
2022-08-07T02:04:56.322Z,8.88
2022-08-07T02:07:45.075Z,7.97
2022-08-07T02:10:17.886Z,8.10
2022-08-07T02:12:50.029Z,8.55
2022-08-07T02:15:22.969Z,8.40
2022-08-07T02:17:51.995Z,7.75
2022-08-07T02:20:23.693Z,8.50
2022-08-07T02:22:57.601Z,8.07
2022-08-07T02:25:32.211Z,7.72
2022-08-07T02:28:24.282Z,8.23
2022-08-07T02:30:53.102Z,8.73
2022-08-07T02:33:20.797Z,7.90
2022-08-07T02:36:28.753Z,8.48
2022-08-07T02:38:39.658Z,8.20
2022-08-07T02:41:21.581Z,8.70
2022-08-07T02:43:49.457Z,9.43
2022-08-07T02:46:18.568Z,8.55
2022-08-07T02:48:54.733Z,9.02
2022-08-07T02:51:42.095Z,9.02
2022-08-07T02:54:13.925Z,8.40
2022-08-07T02:56:42.321Z,8.00
2022-08-07T02:59:11.811Z,7.80
2022-08-07T03:01:40.814Z,7.40
2022-08-07T03:04:12.492Z,7.80
2022-08-07T03:06:44.846Z,8.10
2022-08-07T03:09:13.886Z,8.20
2022-08-07T03:11:52.407Z,7.97
2022-08-07T03:14:27.784Z,7.78
2022-08-07T03:16:56.516Z,7.32
2022-08-07T03:19:28.980Z,8.00
2022-08-07T03:22:06.093Z,7.53
2022-08-07T03:24:34.348Z,7.35
2022-08-07T03:27:09.087Z,7.30
2022-08-07T03:29:44.652Z,7.07
2022-08-07T03:32:19.311Z,6.85
2022-08-07T03:35:16.801Z,7.07
2022-08-07T03:37:46.392Z,6.32
2022-08-07T03:40:22.861Z,7.22
2022-08-07T03:42:51.817Z,6.70
2022-08-07T03:45:29.971Z,6.72
2022-08-07T03:47:58.985Z,6.85
2022-08-07T03:50:28.996Z,6.90
2022-08-07T03:52:59.325Z,6.95
2022-08-07T03:55:57.632Z,6.47
2022-08-07T03:59:06.670Z,6.68
2022-08-07T04:01:07.360Z,6.70
2022-08-07T04:03:49.824Z,6.97
2022-08-07T04:06:37.158Z,6.80
2022-08-07T04:09:05.743Z,6.95
2022-08-07T04:12:27.091Z,6.15
2022-08-07T04:14:38.762Z,6.90
2022-08-07T04:17:20.175Z,6.70
2022-08-07T04:19:54.518Z,6.07
2022-08-07T04:22:27.418Z,5.90
2022-08-07T04:24:58.645Z,5.97
2022-08-07T04:27:27.902Z,5.97
2022-08-07T04:30:01.127Z,6.07
2022-08-07T04:32:34.364Z,6.10
2022-08-07T04:35:07.227Z,6.55
2022-08-07T04:38:01.221Z,6.00
2022-08-07T04:40:29.566Z,6.65
2022-08-07T04:43:01.712Z,6.25
2022-08-07T04:45:57.173Z,5.90
2022-08-07T04:48:44.971Z,5.60
2022-08-07T04:51:53.960Z,6.50
2022-08-07T04:54:50.697Z,5.40
2022-08-07T04:58:23.767Z,6.07
2022-08-07T05:00:30.082Z,6.13
2022-08-07T05:04:01.144Z,5.43
2022-08-07T05:06:28.290Z,5.75
2022-08-07T05:09:45.645Z,5.03
2022-08-07T05:12:26.963Z,5.22
2022-08-07T05:15:16.091Z,5.85
2022-08-07T05:17:56.659Z,5.53
2022-08-07T05:20:33.806Z,5.32
2022-08-07T05:23:15.472Z,5.95
2022-08-07T05:26:13.091Z,5.72
2022-08-07T05:28:34.967Z,5.13
2022-08-07T05:31:03.653Z,5.00
2022-08-07T05:33:35.649Z,5.03
2022-08-07T05:36:07.166Z,4.88
2022-08-07T05:39:00.201Z,4.95
2022-08-07T05:42:02.710Z,5.20
2022-08-07T05:44:29.203Z,4.88
2022-08-07T05:46:57.935Z,5.15
2022-08-07T05:49:27.326Z,4.70
2022-08-07T05:52:11.678Z,4.97
2022-08-07T05:54:44.346Z,5.00
2022-08-07T05:59:55.809Z,4.97
2022-08-07T06:02:29.157Z,4.72
2022-08-07T06:05:03.615Z,4.28
2022-08-07T06:08:13.834Z,4.65
2022-08-07T06:10:20.887Z,4.50
2022-08-07T06:12:49.703Z,4.68
2022-08-07T06:15:19.960Z,4.78
2022-08-07T06:17:53.567Z,4.95
2022-08-07T06:20:31.742Z,5.00
2022-08-07T06:23:02.255Z,5.20
2022-08-07T06:25:54.630Z,5.25
2022-08-07T06:28:28.161Z,5.50
2022-08-07T06:30:56.497Z,5.50
2022-08-07T06:33:25.592Z,5.30
2022-08-07T06:36:12.314Z,5.05
2022-08-07T06:38:59.433Z,5.43
2022-08-07T06:42:04.592Z,6.10
2022-08-07T06:44:33.942Z,5.50
2022-08-07T06:47:12.571Z,5.60
2022-08-07T06:49:52.186Z,5.82
2022-08-07T06:52:32.000Z,6.03
2022-08-07T06:55:32.083Z,5.72
2022-08-07T06:58:00.566Z,5.90
2022-08-07T07:00:31.289Z,6.00
2022-08-07T07:03:00.908Z,6.47
2022-08-07T07:06:02.440Z,5.82
2022-08-07T07:08:18.519Z,5.88
2022-08-07T07:10:56.499Z,6.30
2022-08-07T07:13:56.131Z,6.30
2022-08-07T07:16:27.590Z,6.50
2022-08-07T07:19:33.887Z,6.82
2022-08-07T07:22:05.490Z,6.13
2022-08-07T07:24:43.238Z,6.50
2022-08-07T07:27:35.525Z,5.85
2022-08-07T07:30:32.575Z,6.27
2022-08-07T07:33:06.502Z,5.85
2022-08-07T07:35:44.025Z,5.65
2022-08-07T07:38:25.951Z,6.50
2022-08-07T07:41:02.244Z,5.78
2022-08-07T07:43:47.753Z,5.82
2022-08-07T07:46:39.873Z,5.88
2022-08-07T07:50:35.564Z,6.00
2022-08-07T07:52:00.380Z,5.72
2022-08-07T07:54:28.338Z,5.68
2022-08-07T07:56:57.578Z,6.15
2022-08-07T07:59:52.530Z,5.55
2022-08-07T08:02:34.204Z,5.70
2022-08-07T08:05:14.486Z,5.97
2022-08-07T08:07:51.621Z,6.00
2022-08-07T08:10:37.962Z,6.55
2022-08-07T08:13:10.525Z,6.10
2022-08-07T08:15:57.622Z,6.00
2022-08-07T08:18:28.713Z,5.60
2022-08-07T08:21:00.353Z,5.93
2022-08-07T08:23:51.921Z,5.32
2022-08-07T08:26:38.190Z,5.97
2022-08-07T08:29:06.497Z,5.97
2022-08-07T08:31:59.087Z,6.57
2022-08-07T08:34:29.051Z,5.57
2022-08-07T08:36:58.438Z,5.40
2022-08-07T08:39:39.667Z,5.40
2022-08-07T08:42:22.506Z,6.05
2022-08-07T08:45:42.059Z,6.07
2022-08-07T08:48:32.534Z,6.10
2022-08-07T08:51:23.311Z,5.63
2022-08-07T08:54:16.116Z,5.87
2022-08-07T08:56:48.841Z,5.32
2022-08-07T08:59:42.086Z,5.80
2022-08-07T09:02:36.554Z,5.75
2022-08-07T09:05:32.081Z,5.75
2022-08-07T09:08:10.386Z,5.10
2022-08-07T09:11:24.977Z,5.85
2022-08-07T09:14:27.476Z,6.30
2022-08-07T09:18:00.351Z,5.90
2022-08-07T09:20:35.974Z,6.40
2022-08-07T09:24:32.257Z,5.75
2022-08-07T09:26:27.851Z,5.75
2022-08-07T09:30:06.114Z,6.15
2022-08-07T09:32:17.102Z,5.47
2022-08-07T09:35:04.579Z,5.55
2022-08-07T09:38:10.560Z,5.20
2022-08-07T09:41:05.981Z,5.45
2022-08-07T09:44:05.404Z,5.30
2022-08-07T09:47:42.689Z,5.70
2022-08-07T09:50:01.015Z,5.75
2022-08-07T09:52:42.465Z,5.93
2022-08-07T09:55:29.240Z,5.50
2022-08-07T09:58:21.413Z,5.38
2022-08-07T10:01:51.064Z,5.22
2022-08-07T10:04:39.639Z,5.25
2022-08-07T10:07:39.887Z,5.85
2022-08-07T10:10:22.877Z,5.93
2022-08-07T10:13:02.210Z,5.50
2022-08-07T10:15:30.464Z,5.60
2022-08-07T10:18:50.735Z,5.70
2022-08-07T10:22:12.137Z,5.53
2022-08-07T10:24:22.276Z,5.70
2022-08-07T10:27:30.258Z,5.85
2022-08-07T10:30:17.866Z,5.50
2022-08-07T10:32:52.451Z,6.05
2022-08-07T10:35:55.325Z,5.30
2022-08-07T10:39:01.119Z,5.68
2022-08-07T10:41:47.454Z,5.47
2022-08-07T10:45:04.242Z,5.30
2022-08-07T10:47:53.906Z,4.78
2022-08-07T10:50:42.469Z,5.22
2022-08-07T10:53:26.464Z,4.80
2022-08-07T10:56:04.880Z,5.18
2022-08-07T10:58:46.120Z,5.00
2022-08-07T11:01:51.405Z,4.78
2022-08-07T11:04:41.009Z,5.57
2022-08-07T11:07:56.296Z,5.22
2022-08-07T11:10:57.924Z,5.18
2022-08-07T11:14:42.344Z,4.75
2022-08-07T11:16:50.738Z,5.18
2022-08-07T11:19:27.251Z,5.03
2022-08-07T11:22:26.671Z,5.07
2022-08-07T11:25:23.882Z,5.15
2022-08-07T11:28:09.244Z,4.88
2022-08-07T11:31:08.904Z,4.80
2022-08-07T11:34:00.062Z,4.70
2022-08-07T11:37:00.360Z,4.70
2022-08-07T11:39:39.866Z,4.50
2022-08-07T11:43:01.813Z,4.55
2022-08-07T11:45:49.933Z,4.80
2022-08-07T11:48:44.161Z,3.88
2022-08-07T11:51:44.716Z,4.30
2022-08-07T11:54:34.234Z,5.97
2022-08-07T11:57:20.710Z,6.10
2022-08-07T12:00:19.237Z,6.07
2022-08-07T12:03:45.719Z,6.55
2022-08-07T12:06:39.808Z,6.60
2022-08-07T12:09:46.988Z,6.60
2022-08-07T12:12:28.482Z,6.43
2022-08-07T12:17:58.443Z,5.70
2022-08-07T12:20:45.107Z,6.20
2022-08-07T12:24:07.690Z,5.03
2022-08-07T12:26:54.045Z,5.38
2022-08-07T12:29:38.016Z,5.47
2022-08-07T12:32:20.892Z,5.30
2022-08-07T12:34:55.864Z,4.97
2022-08-07T12:37:28.268Z,4.40
2022-08-07T12:40:43.684Z,4.05
2022-08-07T12:43:09.663Z,4.00
2022-08-07T12:45:55.336Z,4.35
2022-08-07T12:48:55.101Z,4.65
2022-08-07T12:51:33.359Z,4.95
2022-08-07T12:54:37.265Z,4.55
2022-08-07T12:57:09.542Z,4.10
2022-08-07T12:59:54.235Z,4.20
2022-08-07T13:02:37.354Z,4.18
2022-08-07T13:06:02.554Z,4.00
2022-08-07T13:09:02.727Z,3.80
2022-08-07T13:12:03.332Z,4.00
2022-08-07T13:15:07.374Z,4.35
2022-08-07T13:17:46.573Z,4.82
2022-08-07T13:20:27.839Z,4.15
2022-08-07T13:23:09.829Z,4.03
2022-08-07T13:26:03.193Z,3.40
2022-08-07T13:28:58.468Z,4.43
2022-08-07T13:32:31.030Z,3.20
2022-08-07T13:35:08.541Z,3.60
2022-08-07T13:38:01.125Z,3.30
2022-08-07T13:40:56.100Z,3.30
2022-08-07T13:43:23.266Z,3.25
2022-08-07T13:46:11.182Z,3.67
2022-08-07T13:48:58.603Z,3.60
2022-08-07T13:52:23.152Z,3.70
2022-08-07T13:54:23.797Z,3.33
2022-08-07T13:56:56.290Z,3.10
2022-08-07T13:59:33.177Z,3.50
2022-08-07T14:02:13.346Z,3.45
2022-08-07T14:04:54.829Z,3.03
2022-08-07T14:10:12.218Z,2.90
2022-08-07T14:12:55.687Z,2.97
2022-08-07T14:15:42.731Z,3.10
2022-08-07T14:18:30.665Z,2.90
2022-08-07T14:22:01.395Z,2.97
2022-08-07T14:24:14.823Z,2.83
2022-08-07T14:26:52.614Z,3.10
2022-08-07T14:30:06.412Z,3.08
2022-08-07T14:32:15.234Z,3.05
2022-08-07T14:34:47.129Z,2.90
2022-08-07T14:37:17.743Z,3.20
2022-08-07T14:40:16.664Z,3.05
2022-08-07T14:43:01.383Z,3.03
2022-08-07T14:45:46.617Z,2.78
2022-08-07T14:48:20.366Z,3.03
2022-08-07T14:50:56.468Z,2.90
2022-08-07T14:54:08.661Z,3.08
2022-08-07T14:56:15.976Z,3.20
2022-08-07T14:59:02.177Z,3.55
2022-08-07T15:01:42.353Z,3.05
2022-08-07T15:04:12.872Z,3.15
2022-08-07T15:06:47.833Z,3.25
2022-08-07T15:09:59.609Z,3.58
2022-08-07T15:12:25.866Z,2.97
2022-08-07T15:15:07.862Z,3.30
2022-08-07T15:20:38.590Z,3.13
2022-08-07T15:25:03.114Z,3.20
2022-08-07T15:30:09.462Z,3.28
2022-08-07T15:32:01.318Z,3.13
2022-08-07T15:34:37.828Z,2.90
2022-08-07T15:40:16.033Z,3.17
2022-08-07T15:46:31.105Z,3.40
2022-08-07T15:49:13.229Z,3.53
2022-08-07T15:54:34.731Z,3.40
2022-08-07T15:59:59.522Z,3.35
2022-08-07T16:02:38.642Z,3.50
2022-08-07T16:05:20.621Z,3.17
2022-08-07T16:08:31.754Z,3.55
2022-08-07T16:11:26.251Z,3.40
2022-08-07T16:14:03.946Z,3.75
2022-08-07T16:16:47.946Z,3.45
2022-08-07T16:19:42.838Z,3.70
2022-08-07T16:22:55.150Z,3.50
2022-08-07T16:25:55.505Z,3.88
2022-08-07T16:30:06.926Z,3.30
2022-08-07T16:32:06.199Z,3.53
2022-08-07T16:34:38.868Z,3.63
2022-08-07T16:38:04.884Z,3.50
2022-08-07T16:40:28.140Z,3.95
2022-08-07T16:43:23.230Z,3.72
2022-08-07T16:47:04.832Z,3.80
2022-08-07T16:50:29.278Z,3.92
2022-08-07T16:52:51.274Z,4.15
2022-08-07T16:55:47.968Z,3.70
2022-08-07T16:59:11.294Z,3.90
2022-08-07T17:01:59.722Z,3.72
2022-08-07T17:06:19.514Z,4.00
2022-08-07T17:08:05.122Z,4.05
2022-08-07T17:10:54.926Z,3.78
2022-08-07T17:13:38.741Z,3.95
2022-08-07T17:16:43.603Z,3.75
2022-08-07T17:20:02.990Z,3.70
2022-08-07T17:23:06.088Z,4.15
2022-08-07T17:26:23.999Z,3.95
2022-08-07T17:28:57.821Z,3.53
2022-08-07T17:32:06.295Z,3.75
2022-08-07T17:35:33.070Z,3.67
2022-08-07T17:38:05.066Z,3.85
2022-08-07T17:40:30.393Z,3.45
2022-08-07T17:44:00.923Z,3.63
2022-08-07T17:49:23.860Z,3.60
2022-08-07T17:52:19.640Z,3.50
2022-08-07T17:54:55.550Z,3.78
2022-08-07T17:57:58.333Z,3.30
2022-08-07T18:00:33.282Z,3.38
2022-08-07T18:03:20.889Z,3.75
2022-08-07T18:06:02.772Z,3.65
2022-08-07T18:09:01.474Z,3.45
2022-08-07T18:12:30.491Z,3.78
2022-08-07T18:15:09.809Z,3.78
2022-08-07T18:18:44.994Z,3.72
2022-08-07T18:21:05.946Z,4.10
2022-08-07T18:24:12.323Z,3.53
2022-08-07T18:27:18.291Z,3.28
2022-08-07T18:30:32.604Z,3.03
2022-08-07T18:33:24.746Z,3.72
2022-08-07T18:36:08.013Z,3.97
2022-08-07T18:40:07.245Z,4.25
2022-08-07T18:42:12.823Z,5.07
2022-08-07T18:45:43.112Z,5.18
2022-08-07T18:47:50.480Z,4.85
2022-08-07T18:50:46.444Z,5.28
2022-08-07T18:53:36.634Z,5.43
2022-08-07T18:56:57.858Z,5.07
2022-08-07T18:59:58.993Z,5.25
2022-08-07T19:03:15.914Z,5.18
2022-08-07T19:06:02.331Z,5.40
2022-08-07T19:08:58.976Z,5.78
2022-08-07T19:12:04.042Z,6.65
2022-08-07T19:15:01.457Z,6.07
2022-08-07T19:18:11.635Z,6.22
2022-08-07T19:21:09.288Z,5.57
2022-08-07T19:23:58.715Z,5.75
2022-08-07T19:27:08.857Z,5.40
2022-08-07T19:31:00.217Z,4.72
2022-08-07T19:32:28.736Z,5.80
2022-08-07T19:35:07.129Z,5.45
2022-08-07T19:37:57.151Z,4.50
2022-08-07T19:40:31.307Z,5.05
2022-08-07T19:43:08.765Z,5.15
2022-08-07T19:46:05.750Z,5.50
2022-08-07T19:48:42.901Z,5.00
2022-08-07T19:51:19.537Z,5.18
2022-08-07T19:54:30.887Z,4.97
2022-08-07T19:57:52.006Z,5.43
2022-08-07T19:59:41.564Z,5.47
2022-08-07T20:02:19.040Z,5.50
2022-08-07T20:04:49.457Z,5.10
2022-08-07T20:07:23.721Z,5.82
2022-08-07T20:10:35.535Z,5.53
2022-08-07T20:12:45.691Z,5.57
2022-08-07T20:15:22.370Z,5.45
2022-08-07T20:18:01.535Z,5.85
2022-08-07T20:20:32.766Z,5.83
2022-08-07T20:23:22.833Z,5.55
2022-08-07T20:25:53.194Z,4.88
2022-08-07T20:28:21.028Z,4.95
2022-08-07T20:30:58.827Z,5.20
2022-08-07T20:33:37.757Z,5.15
2022-08-07T20:36:08.103Z,5.22
2022-08-07T20:38:53.615Z,6.03
2022-08-07T20:41:34.081Z,5.45
2022-08-07T20:44:12.558Z,5.70
2022-08-07T20:46:43.731Z,5.97
2022-08-07T20:50:00.291Z,6.30
2022-08-07T20:52:09.382Z,6.25
2022-08-07T20:54:53.348Z,6.35
2022-08-07T20:57:28.096Z,6.78
2022-08-07T21:00:06.310Z,6.60
2022-08-07T21:03:00.904Z,6.15
2022-08-07T21:05:52.425Z,6.57
2022-08-07T21:08:32.296Z,6.65
2022-08-07T21:11:07.445Z,6.57
2022-08-07T21:13:57.140Z,6.80
2022-08-07T21:17:06.800Z,7.65
2022-08-07T21:20:00.972Z,7.10
2022-08-07T21:22:28.234Z,6.80
2022-08-07T21:25:19.750Z,6.80
2022-08-07T21:30:39.401Z,7.05
2022-08-07T21:33:22.149Z,7.07
2022-08-07T21:36:31.225Z,7.22
2022-08-07T21:39:45.378Z,6.90
2022-08-07T21:42:46.672Z,7.20
2022-08-07T21:46:07.847Z,7.72
2022-08-07T21:48:44.025Z,8.15
2022-08-07T21:51:33.768Z,8.00
2022-08-07T21:54:35.078Z,9.40
2022-08-07T21:57:31.097Z,8.43
2022-08-07T22:00:25.159Z,8.88
2022-08-07T22:03:17.540Z,8.70
2022-08-07T22:06:04.001Z,9.93
2022-08-07T22:08:44.711Z,7.93
2022-08-07T22:11:17.714Z,8.98
2022-08-07T22:13:55.310Z,9.38
2022-08-07T22:16:47.831Z,10.02
2022-08-07T22:19:36.911Z,9.45
2022-08-07T22:22:21.268Z,9.90
2022-08-07T22:25:02.978Z,9.65
2022-08-07T22:28:31.585Z,9.18
2022-08-07T22:31:12.396Z,8.68
2022-08-07T22:34:18.172Z,8.57
2022-08-07T22:37:12.509Z,8.77
2022-08-07T22:40:01.068Z,9.13
2022-08-07T22:42:35.236Z,9.32
2022-08-07T22:45:10.955Z,8.20
2022-08-07T22:48:01.062Z,8.43
2022-08-07T22:50:53.433Z,8.98
2022-08-07T22:54:06.641Z,9.10
2022-08-07T22:57:00.979Z,9.38
2022-08-07T22:59:49.837Z,8.80
2022-08-07T23:02:58.559Z,9.90
2022-08-07T23:06:07.613Z,9.80
2022-08-07T23:10:00.897Z,9.98
2022-08-07T23:12:06.481Z,10.80
2022-08-07T23:16:04.484Z,11.02
2022-08-07T23:18:23.153Z,10.75
2022-08-07T23:21:07.606Z,10.50
2022-08-07T23:24:18.552Z,11.02
2022-08-07T23:27:07.866Z,10.23
2022-08-07T23:30:38.709Z,11.05
2022-08-07T23:34:34.806Z,9.95
2022-08-07T23:36:17.035Z,11.38
2022-08-07T23:39:09.369Z,10.45
2022-08-07T23:44:51.450Z,9.30
2022-08-07T23:47:42.275Z,8.63
2022-08-07T23:50:22.569Z,8.50
2022-08-07T23:53:17.043Z,8.23
2022-08-07T23:56:20.805Z,8.90
2022-08-07T23:59:10.652Z,9.25
